sensor_id;sensor_type;location;lat;lon;timestamp;P1;durP1;ratioP1;P2;durP2;ratioP2
21806;SDS011;11065;50.786;7.840;2022-10-19T00:00:30;7.77;;;5.10;;
21806;SDS011;11065;50.786;7.840;2022-10-19T00:02:57;10.03;;;5.63;;
21806;SDS011;11065;50.786;7.840;2022-10-19T00:05:24;10.47;;;5.40;;
21806;SDS011;11065;50.786;7.840;2022-10-19T00:07:51;9.17;;;5.77;;
21806;SDS011;11065;50.786;7.840;2022-10-19T00:10:19;9.40;;;6.07;;
21806;SDS011;11065;50.786;7.840;2022-10-19T00:12:46;7.00;;;5.40;;
21806;SDS011;11065;50.786;7.840;2022-10-19T00:15:18;9.33;;;6.33;;
21806;SDS011;11065;50.786;7.840;2022-10-19T00:17:45;9.30;;;6.00;;
21806;SDS011;11065;50.786;7.840;2022-10-19T00:20:12;7.77;;;5.63;;
21806;SDS011;11065;50.786;7.840;2022-10-19T00:22:38;9.63;;;6.10;;
21806;SDS011;11065;50.786;7.840;2022-10-19T00:25:05;12.03;;;5.97;;
21806;SDS011;11065;50.786;7.840;2022-10-19T00:27:33;8.53;;;5.93;;
21806;SDS011;11065;50.786;7.840;2022-10-19T00:30:00;10.10;;;5.67;;
21806;SDS011;11065;50.786;7.840;2022-10-19T00:32:27;9.00;;;6.10;;
21806;SDS011;11065;50.786;7.840;2022-10-19T00:34:54;8.03;;;6.00;;
21806;SDS011;11065;50.786;7.840;2022-10-19T00:37:20;8.67;;;5.53;;
21806;SDS011;11065;50.786;7.840;2022-10-19T00:39:47;7.00;;;5.17;;
21806;SDS011;11065;50.786;7.840;2022-10-19T00:42:19;7.90;;;5.87;;
21806;SDS011;11065;50.786;7.840;2022-10-19T00:47:12;9.00;;;5.53;;
21806;SDS011;11065;50.786;7.840;2022-10-19T00:49:41;7.70;;;5.60;;
21806;SDS011;11065;50.786;7.840;2022-10-19T00:52:12;7.63;;;5.30;;
21806;SDS011;11065;50.786;7.840;2022-10-19T00:54:42;9.30;;;6.23;;
21806;SDS011;11065;50.786;7.840;2022-10-19T00:57:11;9.73;;;6.37;;
21806;SDS011;11065;50.786;7.840;2022-10-19T00:59:38;8.83;;;5.67;;
21806;SDS011;11065;50.786;7.840;2022-10-19T01:02:08;8.50;;;6.03;;
21806;SDS011;11065;50.786;7.840;2022-10-19T01:04:35;9.37;;;6.87;;
21806;SDS011;11065;50.786;7.840;2022-10-19T01:07:05;7.73;;;5.33;;
21806;SDS011;11065;50.786;7.840;2022-10-19T01:09:33;8.80;;;5.97;;
21806;SDS011;11065;50.786;7.840;2022-10-19T01:30:44;7.47;;;5.07;;
21806;SDS011;11065;50.786;7.840;2022-10-19T01:33:26;9.20;;;5.83;;
21806;SDS011;11065;50.786;7.840;2022-10-19T01:36:26;7.30;;;5.13;;
21806;SDS011;11065;50.786;7.840;2022-10-19T01:39:07;7.97;;;5.07;;
21806;SDS011;11065;50.786;7.840;2022-10-19T01:44:30;7.63;;;5.43;;
21806;SDS011;11065;50.786;7.840;2022-10-19T01:47:09;7.17;;;4.70;;
21806;SDS011;11065;50.786;7.840;2022-10-19T01:49:41;22.07;;;5.17;;
21806;SDS011;11065;50.786;7.840;2022-10-19T01:52:14;7.10;;;4.97;;
21806;SDS011;11065;50.786;7.840;2022-10-19T01:54:46;8.97;;;4.87;;
21806;SDS011;11065;50.786;7.840;2022-10-19T01:57:17;6.73;;;4.63;;
21806;SDS011;11065;50.786;7.840;2022-10-19T01:59:49;7.03;;;4.23;;
21806;SDS011;11065;50.786;7.840;2022-10-19T02:02:17;6.80;;;4.37;;
21806;SDS011;11065;50.786;7.840;2022-10-19T02:04:45;6.97;;;4.70;;
21806;SDS011;11065;50.786;7.840;2022-10-19T02:07:14;6.17;;;4.23;;
21806;SDS011;11065;50.786;7.840;2022-10-19T02:09:41;7.77;;;4.73;;
21806;SDS011;11065;50.786;7.840;2022-10-19T02:12:09;6.07;;;3.83;;
21806;SDS011;11065;50.786;7.840;2022-10-19T02:14:39;6.73;;;4.00;;
21806;SDS011;11065;50.786;7.840;2022-10-19T02:17:13;13.77;;;4.40;;
21806;SDS011;11065;50.786;7.840;2022-10-19T02:19:43;6.20;;;4.67;;
21806;SDS011;11065;50.786;7.840;2022-10-19T02:22:10;7.47;;;4.53;;
21806;SDS011;11065;50.786;7.840;2022-10-19T02:24:38;10.97;;;4.47;;
21806;SDS011;11065;50.786;7.840;2022-10-19T02:27:05;6.13;;;4.47;;
21806;SDS011;11065;50.786;7.840;2022-10-19T02:29:33;6.70;;;4.20;;
21806;SDS011;11065;50.786;7.840;2022-10-19T02:32:03;5.83;;;4.23;;
21806;SDS011;11065;50.786;7.840;2022-10-19T02:34:30;5.57;;;3.90;;
21806;SDS011;11065;50.786;7.840;2022-10-19T02:36:57;5.60;;;3.60;;
21806;SDS011;11065;50.786;7.840;2022-10-19T02:39:24;6.10;;;3.70;;
21806;SDS011;11065;50.786;7.840;2022-10-19T02:42:03;5.07;;;3.83;;
21806;SDS011;11065;50.786;7.840;2022-10-19T02:47:19;5.77;;;3.73;;
21806;SDS011;11065;50.786;7.840;2022-10-19T02:49:51;5.73;;;3.53;;
21806;SDS011;11065;50.786;7.840;2022-10-19T02:52:18;5.90;;;3.70;;
21806;SDS011;11065;50.786;7.840;2022-10-19T02:54:45;5.20;;;3.40;;
21806;SDS011;11065;50.786;7.840;2022-10-19T02:57:22;6.27;;;3.80;;
21806;SDS011;11065;50.786;7.840;2022-10-19T02:59:51;3.97;;;3.10;;
21806;SDS011;11065;50.786;7.840;2022-10-19T03:02:18;5.57;;;3.77;;
21806;SDS011;11065;50.786;7.840;2022-10-19T03:04:45;5.90;;;3.63;;
21806;SDS011;11065;50.786;7.840;2022-10-19T03:07:18;6.50;;;3.67;;
21806;SDS011;11065;50.786;7.840;2022-10-19T03:09:46;5.10;;;3.47;;
21806;SDS011;11065;50.786;7.840;2022-10-19T03:12:13;5.23;;;3.50;;
21806;SDS011;11065;50.786;7.840;2022-10-19T03:14:41;4.00;;;2.90;;
21806;SDS011;11065;50.786;7.840;2022-10-19T03:17:08;5.30;;;2.97;;
21806;SDS011;11065;50.786;7.840;2022-10-19T03:19:35;6.10;;;3.57;;
21806;SDS011;11065;50.786;7.840;2022-10-19T03:22:02;6.90;;;3.70;;
21806;SDS011;11065;50.786;7.840;2022-10-19T03:24:30;6.53;;;4.13;;
21806;SDS011;11065;50.786;7.840;2022-10-19T03:26:56;5.60;;;3.43;;
21806;SDS011;11065;50.786;7.840;2022-10-19T03:29:23;4.63;;;3.07;;
21806;SDS011;11065;50.786;7.840;2022-10-19T03:31:50;6.40;;;3.47;;
21806;SDS011;11065;50.786;7.840;2022-10-19T03:34:17;4.70;;;3.37;;
21806;SDS011;11065;50.786;7.840;2022-10-19T03:36:44;6.83;;;3.37;;
21806;SDS011;11065;50.786;7.840;2022-10-19T03:39:11;5.40;;;3.73;;
21806;SDS011;11065;50.786;7.840;2022-10-19T03:41:40;6.00;;;3.50;;
21806;SDS011;11065;50.786;7.840;2022-10-19T03:44:07;4.47;;;2.93;;
21806;SDS011;11065;50.786;7.840;2022-10-19T03:46:35;5.10;;;3.37;;
21806;SDS011;11065;50.786;7.840;2022-10-19T03:49:02;5.63;;;3.90;;
21806;SDS011;11065;50.786;7.840;2022-10-19T03:51:30;5.20;;;3.37;;
21806;SDS011;11065;50.786;7.840;2022-10-19T03:53:59;6.40;;;3.50;;
21806;SDS011;11065;50.786;7.840;2022-10-19T03:56:29;5.30;;;3.00;;
21806;SDS011;11065;50.786;7.840;2022-10-19T03:58:57;7.03;;;4.07;;
21806;SDS011;11065;50.786;7.840;2022-10-19T04:04:00;4.40;;;3.20;;
21806;SDS011;11065;50.786;7.840;2022-10-19T04:06:30;6.33;;;3.70;;
21806;SDS011;11065;50.786;7.840;2022-10-19T04:09:02;4.57;;;3.50;;
21806;SDS011;11065;50.786;7.840;2022-10-19T04:11:29;6.40;;;3.47;;
21806;SDS011;11065;50.786;7.840;2022-10-19T04:13:57;5.30;;;3.63;;
21806;SDS011;11065;50.786;7.840;2022-10-19T04:16:25;7.60;;;3.90;;
21806;SDS011;11065;50.786;7.840;2022-10-19T04:18:53;6.87;;;3.83;;
21806;SDS011;11065;50.786;7.840;2022-10-19T04:24:01;5.47;;;3.43;;
21806;SDS011;11065;50.786;7.840;2022-10-19T04:26:36;4.63;;;2.73;;
21806;SDS011;11065;50.786;7.840;2022-10-19T04:29:05;4.80;;;3.23;;
21806;SDS011;11065;50.786;7.840;2022-10-19T04:31:31;4.67;;;2.93;;
21806;SDS011;11065;50.786;7.840;2022-10-19T04:33:58;5.57;;;3.00;;
21806;SDS011;11065;50.786;7.840;2022-10-19T04:36:26;7.23;;;2.90;;
21806;SDS011;11065;50.786;7.840;2022-10-19T04:38:53;4.90;;;2.60;;
21806;SDS011;11065;50.786;7.840;2022-10-19T04:41:20;4.57;;;2.77;;
21806;SDS011;11065;50.786;7.840;2022-10-19T04:43:48;4.93;;;2.73;;
21806;SDS011;11065;50.786;7.840;2022-10-19T04:46:19;4.10;;;2.67;;
21806;SDS011;11065;50.786;7.840;2022-10-19T04:48:46;5.60;;;2.63;;
21806;SDS011;11065;50.786;7.840;2022-10-19T04:51:13;3.60;;;2.50;;
21806;SDS011;11065;50.786;7.840;2022-10-19T04:53:42;4.57;;;2.73;;
21806;SDS011;11065;50.786;7.840;2022-10-19T04:56:19;5.07;;;2.83;;
21806;SDS011;11065;50.786;7.840;2022-10-19T04:58:48;3.90;;;2.47;;
21806;SDS011;11065;50.786;7.840;2022-10-19T05:01:15;4.20;;;2.57;;
21806;SDS011;11065;50.786;7.840;2022-10-19T05:03:44;5.83;;;2.73;;
21806;SDS011;11065;50.786;7.840;2022-10-19T05:06:12;3.33;;;2.37;;
21806;SDS011;11065;50.786;7.840;2022-10-19T05:08:40;7.13;;;3.20;;
21806;SDS011;11065;50.786;7.840;2022-10-19T05:11:11;3.97;;;2.43;;
21806;SDS011;11065;50.786;7.840;2022-10-19T05:13:40;4.00;;;2.27;;
21806;SDS011;11065;50.786;7.840;2022-10-19T05:16:09;4.03;;;2.27;;
21806;SDS011;11065;50.786;7.840;2022-10-19T05:18:38;6.60;;;2.50;;
21806;SDS011;11065;50.786;7.840;2022-10-19T05:21:06;4.33;;;2.60;;
21806;SDS011;11065;50.786;7.840;2022-10-19T05:23:35;3.60;;;2.10;;
21806;SDS011;11065;50.786;7.840;2022-10-19T05:26:04;3.93;;;2.57;;
21806;SDS011;11065;50.786;7.840;2022-10-19T05:28:37;6.47;;;2.37;;
21806;SDS011;11065;50.786;7.840;2022-10-19T05:31:26;4.87;;;2.50;;
21806;SDS011;11065;50.786;7.840;2022-10-19T05:33:52;4.53;;;2.20;;
21806;SDS011;11065;50.786;7.840;2022-10-19T05:36:29;5.37;;;2.80;;
21806;SDS011;11065;50.786;7.840;2022-10-19T05:39:01;3.20;;;2.10;;
21806;SDS011;11065;50.786;7.840;2022-10-19T05:41:33;4.30;;;2.50;;
21806;SDS011;11065;50.786;7.840;2022-10-19T05:44:00;4.03;;;2.60;;
21806;SDS011;11065;50.786;7.840;2022-10-19T05:46:28;5.37;;;2.47;;
21806;SDS011;11065;50.786;7.840;2022-10-19T05:48:56;3.93;;;2.47;;
21806;SDS011;11065;50.786;7.840;2022-10-19T05:51:24;4.87;;;2.50;;
21806;SDS011;11065;50.786;7.840;2022-10-19T05:53:53;4.17;;;2.50;;
21806;SDS011;11065;50.786;7.840;2022-10-19T05:56:24;4.20;;;2.57;;
21806;SDS011;11065;50.786;7.840;2022-10-19T05:58:54;3.60;;;2.30;;
21806;SDS011;11065;50.786;7.840;2022-10-19T06:01:25;6.83;;;2.63;;
21806;SDS011;11065;50.786;7.840;2022-10-19T06:03:54;5.60;;;2.60;;
21806;SDS011;11065;50.786;7.840;2022-10-19T06:06:22;6.03;;;2.73;;
21806;SDS011;11065;50.786;7.840;2022-10-19T06:08:50;4.17;;;2.83;;
21806;SDS011;11065;50.786;7.840;2022-10-19T06:11:22;6.57;;;2.90;;
21806;SDS011;11065;50.786;7.840;2022-10-19T06:13:52;6.33;;;2.63;;
21806;SDS011;11065;50.786;7.840;2022-10-19T06:16:21;5.23;;;2.67;;
21806;SDS011;11065;50.786;7.840;2022-10-19T06:18:49;3.87;;;2.73;;
21806;SDS011;11065;50.786;7.840;2022-10-19T06:21:16;5.97;;;3.00;;
21806;SDS011;11065;50.786;7.840;2022-10-19T06:23:48;5.90;;;2.70;;
21806;SDS011;11065;50.786;7.840;2022-10-19T06:26:19;7.27;;;2.97;;
21806;SDS011;11065;50.786;7.840;2022-10-19T06:28:46;3.77;;;2.63;;
21806;SDS011;11065;50.786;7.840;2022-10-19T06:31:13;6.13;;;2.83;;
21806;SDS011;11065;50.786;7.840;2022-10-19T06:33:43;5.57;;;3.27;;
21806;SDS011;11065;50.786;7.840;2022-10-19T06:36:15;5.07;;;3.10;;
21806;SDS011;11065;50.786;7.840;2022-10-19T06:38:44;5.40;;;2.60;;
21806;SDS011;11065;50.786;7.840;2022-10-19T06:41:11;4.70;;;3.13;;
21806;SDS011;11065;50.786;7.840;2022-10-19T06:43:38;4.47;;;2.97;;
21806;SDS011;11065;50.786;7.840;2022-10-19T06:46:09;3.93;;;2.43;;
21806;SDS011;11065;50.786;7.840;2022-10-19T06:48:37;4.60;;;3.03;;
21806;SDS011;11065;50.786;7.840;2022-10-19T06:51:05;5.57;;;3.00;;
21806;SDS011;11065;50.786;7.840;2022-10-19T06:53:33;5.20;;;3.17;;
21806;SDS011;11065;50.786;7.840;2022-10-19T06:56:01;4.40;;;2.73;;
21806;SDS011;11065;50.786;7.840;2022-10-19T06:58:34;5.70;;;3.13;;
21806;SDS011;11065;50.786;7.840;2022-10-19T07:01:04;5.23;;;3.03;;
21806;SDS011;11065;50.786;7.840;2022-10-19T07:03:37;5.40;;;2.83;;
21806;SDS011;11065;50.786;7.840;2022-10-19T07:06:05;6.57;;;2.97;;
21806;SDS011;11065;50.786;7.840;2022-10-19T07:08:34;5.30;;;3.03;;
21806;SDS011;11065;50.786;7.840;2022-10-19T07:11:03;5.33;;;2.90;;
21806;SDS011;11065;50.786;7.840;2022-10-19T07:13:32;5.23;;;2.83;;
21806;SDS011;11065;50.786;7.840;2022-10-19T07:16:03;4.83;;;3.07;;
21806;SDS011;11065;50.786;7.840;2022-10-19T07:18:33;7.43;;;2.93;;
21806;SDS011;11065;50.786;7.840;2022-10-19T07:21:02;5.90;;;3.17;;
21806;SDS011;11065;50.786;7.840;2022-10-19T07:23:30;5.47;;;3.30;;
21806;SDS011;11065;50.786;7.840;2022-10-19T07:26:19;4.53;;;2.67;;
21806;SDS011;11065;50.786;7.840;2022-10-19T07:28:49;4.50;;;2.87;;
21806;SDS011;11065;50.786;7.840;2022-10-19T07:31:17;4.70;;;3.23;;
21806;SDS011;11065;50.786;7.840;2022-10-19T07:33:46;8.03;;;3.60;;
21806;SDS011;11065;50.786;7.840;2022-10-19T07:36:16;7.30;;;3.57;;
21806;SDS011;11065;50.786;7.840;2022-10-19T07:38:43;5.00;;;3.57;;
21806;SDS011;11065;50.786;7.840;2022-10-19T07:41:11;5.00;;;3.17;;
21806;SDS011;11065;50.786;7.840;2022-10-19T07:43:39;6.20;;;3.50;;
21806;SDS011;11065;50.786;7.840;2022-10-19T07:46:09;5.10;;;3.63;;
21806;SDS011;11065;50.786;7.840;2022-10-19T07:48:38;4.67;;;3.60;;
21806;SDS011;11065;50.786;7.840;2022-10-19T07:51:05;6.23;;;3.53;;
21806;SDS011;11065;50.786;7.840;2022-10-19T07:53:33;6.60;;;4.00;;
21806;SDS011;11065;50.786;7.840;2022-10-19T07:56:02;6.90;;;4.07;;
21806;SDS011;11065;50.786;7.840;2022-10-19T07:58:32;6.97;;;4.23;;
21806;SDS011;11065;50.786;7.840;2022-10-19T08:01:02;6.60;;;3.77;;
21806;SDS011;11065;50.786;7.840;2022-10-19T08:03:32;5.60;;;3.60;;
21806;SDS011;11065;50.786;7.840;2022-10-19T08:06:20;6.87;;;3.97;;
21806;SDS011;11065;50.786;7.840;2022-10-19T08:08:47;6.50;;;3.97;;
21806;SDS011;11065;50.786;7.840;2022-10-19T08:11:16;6.77;;;3.80;;
21806;SDS011;11065;50.786;7.840;2022-10-19T08:13:45;5.93;;;4.00;;
21806;SDS011;11065;50.786;7.840;2022-10-19T08:19:10;5.23;;;3.40;;
21806;SDS011;11065;50.786;7.840;2022-10-19T08:21:39;4.80;;;3.50;;
21806;SDS011;11065;50.786;7.840;2022-10-19T08:24:07;5.73;;;3.60;;
21806;SDS011;11065;50.786;7.840;2022-10-19T08:26:36;7.60;;;4.13;;
21806;SDS011;11065;50.786;7.840;2022-10-19T08:32:00;6.30;;;3.67;;
21806;SDS011;11065;50.786;7.840;2022-10-19T08:34:27;4.83;;;3.20;;
21806;SDS011;11065;50.786;7.840;2022-10-19T08:36:54;8.13;;;3.80;;
21806;SDS011;11065;50.786;7.840;2022-10-19T08:39:21;6.67;;;3.20;;
21806;SDS011;11065;50.786;7.840;2022-10-19T08:41:51;5.73;;;2.37;;
21806;SDS011;11065;50.786;7.840;2022-10-19T08:49:56;7.38;;;2.08;;
21806;SDS011;11065;50.786;7.840;2022-10-19T08:52:26;5.25;;;2.17;;
21806;SDS011;11065;50.786;7.840;2022-10-19T08:55:02;7.47;;;2.05;;
21806;SDS011;11065;50.786;7.840;2022-10-19T09:00:42;4.63;;;1.55;;
21806;SDS011;11065;50.786;7.840;2022-10-19T09:03:22;4.10;;;1.20;;
21806;SDS011;11065;50.786;7.840;2022-10-19T09:08:46;4.60;;;1.80;;
21806;SDS011;11065;50.786;7.840;2022-10-19T09:11:16;4.40;;;1.60;;
21806;SDS011;11065;50.786;7.840;2022-10-19T09:13:47;5.32;;;1.45;;
21806;SDS011;11065;50.786;7.840;2022-10-19T09:16:30;4.25;;;1.27;;
21806;SDS011;11065;50.786;7.840;2022-10-19T09:18:58;4.03;;;1.50;;
21806;SDS011;11065;50.786;7.840;2022-10-19T09:21:27;4.82;;;1.60;;
21806;SDS011;11065;50.786;7.840;2022-10-19T09:24:30;3.65;;;1.23;;
21806;SDS011;11065;50.786;7.840;2022-10-19T09:27:03;4.95;;;1.63;;
21806;SDS011;11065;50.786;7.840;2022-10-19T09:29:36;4.70;;;1.20;;
21806;SDS011;11065;50.786;7.840;2022-10-19T09:32:13;3.35;;;1.40;;
21806;SDS011;11065;50.786;7.840;2022-10-19T09:34:47;2.83;;;1.05;;
21806;SDS011;11065;50.786;7.840;2022-10-19T09:37:20;4.70;;;1.30;;
21806;SDS011;11065;50.786;7.840;2022-10-19T09:39:52;3.53;;;1.13;;
21806;SDS011;11065;50.786;7.840;2022-10-19T09:42:22;4.43;;;1.15;;
21806;SDS011;11065;50.786;7.840;2022-10-19T09:44:59;3.67;;;1.02;;
21806;SDS011;11065;50.786;7.840;2022-10-19T09:47:56;3.20;;;1.10;;
21806;SDS011;11065;50.786;7.840;2022-10-19T09:50:37;4.45;;;1.27;;
21806;SDS011;11065;50.786;7.840;2022-10-19T09:53:16;3.15;;;1.00;;
21806;SDS011;11065;50.786;7.840;2022-10-19T09:56:19;3.90;;;1.00;;
21806;SDS011;11065;50.786;7.840;2022-10-19T09:58:47;2.22;;;0.80;;
21806;SDS011;11065;50.786;7.840;2022-10-19T10:06:39;3.83;;;1.30;;
21806;SDS011;11065;50.786;7.840;2022-10-19T10:09:12;3.10;;;0.95;;
21806;SDS011;11065;50.786;7.840;2022-10-19T10:11:47;3.88;;;0.98;;
21806;SDS011;11065;50.786;7.840;2022-10-19T10:16:46;3.67;;;0.82;;
21806;SDS011;11065;50.786;7.840;2022-10-19T10:19:13;3.95;;;0.90;;
21806;SDS011;11065;50.786;7.840;2022-10-19T10:21:46;2.60;;;0.90;;
21806;SDS011;11065;50.786;7.840;2022-10-19T10:24:16;4.88;;;1.13;;
21806;SDS011;11065;50.786;7.840;2022-10-19T10:26:45;2.38;;;0.80;;
21806;SDS011;11065;50.786;7.840;2022-10-19T10:29:18;3.83;;;1.20;;
21806;SDS011;11065;50.786;7.840;2022-10-19T10:31:55;3.05;;;0.98;;
21806;SDS011;11065;50.786;7.840;2022-10-19T10:34:53;3.58;;;1.15;;
21806;SDS011;11065;50.786;7.840;2022-10-19T10:40:05;2.85;;;0.80;;
21806;SDS011;11065;50.786;7.840;2022-10-19T10:42:55;4.30;;;1.00;;
21806;SDS011;11065;50.786;7.840;2022-10-19T10:45:31;2.97;;;1.20;;
21806;SDS011;11065;50.786;7.840;2022-10-19T10:48:29;3.17;;;1.33;;
21806;SDS011;11065;50.786;7.840;2022-10-19T10:51:14;3.63;;;1.02;;
21806;SDS011;11065;50.786;7.840;2022-10-19T10:53:46;2.97;;;0.90;;
21806;SDS011;11065;50.786;7.840;2022-10-19T10:56:18;2.92;;;1.33;;
21806;SDS011;11065;50.786;7.840;2022-10-19T10:59:04;4.22;;;1.60;;
21806;SDS011;11065;50.786;7.840;2022-10-19T11:01:43;3.28;;;0.95;;
21806;SDS011;11065;50.786;7.840;2022-10-19T11:04:38;3.10;;;0.82;;
21806;SDS011;11065;50.786;7.840;2022-10-19T11:07:25;2.08;;;0.85;;
21806;SDS011;11065;50.786;7.840;2022-10-19T11:09:57;3.33;;;0.82;;
21806;SDS011;11065;50.786;7.840;2022-10-19T11:12:36;3.30;;;0.93;;
21806;SDS011;11065;50.786;7.840;2022-10-19T11:15:19;4.50;;;1.10;;
21806;SDS011;11065;50.786;7.840;2022-10-19T11:18:04;3.30;;;1.20;;
21806;SDS011;11065;50.786;7.840;2022-10-19T11:20:43;3.58;;;0.93;;
21806;SDS011;11065;50.786;7.840;2022-10-19T11:23:39;2.67;;;0.80;;
21806;SDS011;11065;50.786;7.840;2022-10-19T11:28:59;2.80;;;1.00;;
21806;SDS011;11065;50.786;7.840;2022-10-19T11:37:14;2.70;;;0.90;;
21806;SDS011;11065;50.786;7.840;2022-10-19T11:45:20;3.08;;;0.75;;
21806;SDS011;11065;50.786;7.840;2022-10-19T11:48:02;2.83;;;0.88;;
21806;SDS011;11065;50.786;7.840;2022-10-19T11:50:47;4.10;;;0.80;;
21806;SDS011;11065;50.786;7.840;2022-10-19T11:53:55;2.53;;;1.00;;
21806;SDS011;11065;50.786;7.840;2022-10-19T12:05:09;3.83;;;0.70;;
21806;SDS011;11065;50.786;7.840;2022-10-19T12:10:47;2.92;;;1.00;;
21806;SDS011;11065;50.786;7.840;2022-10-19T12:13:37;2.33;;;0.70;;
21806;SDS011;11065;50.786;7.840;2022-10-19T12:16:28;4.10;;;0.95;;
21806;SDS011;11065;50.786;7.840;2022-10-19T12:19:03;4.82;;;1.23;;
21806;SDS011;11065;50.786;7.840;2022-10-19T12:21:33;2.97;;;0.98;;
21806;SDS011;11065;50.786;7.840;2022-10-19T12:24:04;2.80;;;0.85;;
21806;SDS011;11065;50.786;7.840;2022-10-19T12:26:37;2.03;;;0.73;;
21806;SDS011;11065;50.786;7.840;2022-10-19T12:29:08;2.90;;;0.93;;
21806;SDS011;11065;50.786;7.840;2022-10-19T12:31:40;2.33;;;0.90;;
21806;SDS011;11065;50.786;7.840;2022-10-19T12:34:12;4.03;;;1.20;;
21806;SDS011;11065;50.786;7.840;2022-10-19T12:39:40;3.50;;;0.90;;
21806;SDS011;11065;50.786;7.840;2022-10-19T12:42:28;4.72;;;1.30;;
21806;SDS011;11065;50.786;7.840;2022-10-19T12:51:19;2.45;;;0.82;;
21806;SDS011;11065;50.786;7.840;2022-10-19T12:56:00;3.75;;;0.90;;
21806;SDS011;11065;50.786;7.840;2022-10-19T13:03:45;2.92;;;0.82;;
21806;SDS011;11065;50.786;7.840;2022-10-19T13:06:17;1.40;;;0.70;;
21806;SDS011;11065;50.786;7.840;2022-10-19T13:08:56;3.83;;;1.10;;
21806;SDS011;11065;50.786;7.840;2022-10-19T13:11:26;3.45;;;0.95;;
21806;SDS011;11065;50.786;7.840;2022-10-19T13:13:55;3.63;;;0.98;;
21806;SDS011;11065;50.786;7.840;2022-10-19T13:21:42;3.42;;;1.10;;
21806;SDS011;11065;50.786;7.840;2022-10-19T13:29:38;4.47;;;1.20;;
21806;SDS011;11065;50.786;7.840;2022-10-19T13:38:08;3.20;;;1.20;;
21806;SDS011;11065;50.786;7.840;2022-10-19T13:43:26;3.58;;;1.20;;
21806;SDS011;11065;50.786;7.840;2022-10-19T13:51:32;5.07;;;1.60;;
21806;SDS011;11065;50.786;7.840;2022-10-19T13:57:40;2.95;;;1.15;;
21806;SDS011;11065;50.786;7.840;2022-10-19T14:06:38;3.92;;;1.48;;
21806;SDS011;11065;50.786;7.840;2022-10-19T14:09:24;2.50;;;1.20;;
21806;SDS011;11065;50.786;7.840;2022-10-19T14:12:23;3.75;;;1.30;;
21806;SDS011;11065;50.786;7.840;2022-10-19T14:14:53;2.88;;;1.10;;
21806;SDS011;11065;50.786;7.840;2022-10-19T14:17:21;3.22;;;1.30;;
21806;SDS011;11065;50.786;7.840;2022-10-19T14:19:52;3.53;;;1.60;;
21806;SDS011;11065;50.786;7.840;2022-10-19T14:22:27;4.57;;;1.42;;
21806;SDS011;11065;50.786;7.840;2022-10-19T14:25:05;5.25;;;1.60;;
21806;SDS011;11065;50.786;7.840;2022-10-19T14:27:43;4.97;;;1.20;;
21806;SDS011;11065;50.786;7.840;2022-10-19T14:30:24;4.20;;;1.35;;
21806;SDS011;11065;50.786;7.840;2022-10-19T14:32:58;2.42;;;1.13;;
21806;SDS011;11065;50.786;7.840;2022-10-19T14:35:34;6.32;;;1.50;;
21806;SDS011;11065;50.786;7.840;2022-10-19T14:38:07;3.22;;;1.30;;
21806;SDS011;11065;50.786;7.840;2022-10-19T14:40:41;3.30;;;1.30;;
21806;SDS011;11065;50.786;7.840;2022-10-19T14:43:17;3.37;;;0.93;;
21806;SDS011;11065;50.786;7.840;2022-10-19T14:46:08;6.43;;;1.00;;
21806;SDS011;11065;50.786;7.840;2022-10-19T14:48:41;3.00;;;1.23;;
21806;SDS011;11065;50.786;7.840;2022-10-19T14:51:15;3.10;;;1.10;;
21806;SDS011;11065;50.786;7.840;2022-10-19T14:53:50;2.67;;;1.20;;
21806;SDS011;11065;50.786;7.840;2022-10-19T14:56:33;5.27;;;1.30;;
21806;SDS011;11065;50.786;7.840;2022-10-19T14:59:15;3.80;;;1.60;;
21806;SDS011;11065;50.786;7.840;2022-10-19T15:01:58;2.87;;;1.03;;
21806;SDS011;11065;50.786;7.840;2022-10-19T15:04:28;3.23;;;1.10;;
21806;SDS011;11065;50.786;7.840;2022-10-19T15:07:00;4.07;;;1.10;;
21806;SDS011;11065;50.786;7.840;2022-10-19T15:09:30;3.17;;;1.30;;
21806;SDS011;11065;50.786;7.840;2022-10-19T15:12:14;2.60;;;1.30;;
21806;SDS011;11065;50.786;7.840;2022-10-19T15:14:44;2.33;;;1.00;;
21806;SDS011;11065;50.786;7.840;2022-10-19T15:17:23;4.57;;;1.33;;
21806;SDS011;11065;50.786;7.840;2022-10-19T15:19:59;3.67;;;1.30;;
21806;SDS011;11065;50.786;7.840;2022-10-19T15:27:36;3.30;;;1.30;;
21806;SDS011;11065;50.786;7.840;2022-10-19T15:30:21;3.93;;;1.40;;
21806;SDS011;11065;50.786;7.840;2022-10-19T15:33:07;3.90;;;1.50;;
21806;SDS011;11065;50.786;7.840;2022-10-19T15:35:38;4.40;;;1.70;;
21806;SDS011;11065;50.786;7.840;2022-10-19T15:38:16;3.83;;;1.97;;
21806;SDS011;11065;50.786;7.840;2022-10-19T15:40:48;4.13;;;1.97;;
21806;SDS011;11065;50.786;7.840;2022-10-19T15:45:59;3.20;;;1.70;;
21806;SDS011;11065;50.786;7.840;2022-10-19T15:53:51;4.97;;;2.10;;
21806;SDS011;11065;50.786;7.840;2022-10-19T15:56:24;3.77;;;1.57;;
21806;SDS011;11065;50.786;7.840;2022-10-19T15:58:59;2.37;;;1.27;;
21806;SDS011;11065;50.786;7.840;2022-10-19T16:01:29;4.80;;;1.60;;
21806;SDS011;11065;50.786;7.840;2022-10-19T16:03:58;4.10;;;1.50;;
21806;SDS011;11065;50.786;7.840;2022-10-19T16:06:26;8.93;;;1.60;;
21806;SDS011;11065;50.786;7.840;2022-10-19T16:08:57;6.50;;;1.40;;
21806;SDS011;11065;50.786;7.840;2022-10-19T16:11:25;5.13;;;1.40;;
21806;SDS011;11065;50.786;7.840;2022-10-19T16:13:54;3.80;;;1.50;;
21806;SDS011;11065;50.786;7.840;2022-10-19T16:16:22;4.23;;;1.60;;
21806;SDS011;11065;50.786;7.840;2022-10-19T16:18:51;6.40;;;1.80;;
21806;SDS011;11065;50.786;7.840;2022-10-19T16:21:19;3.83;;;1.70;;
21806;SDS011;11065;50.786;7.840;2022-10-19T16:23:47;5.20;;;1.80;;
21806;SDS011;11065;50.786;7.840;2022-10-19T16:26:15;4.83;;;1.63;;
21806;SDS011;11065;50.786;7.840;2022-10-19T16:28:42;3.73;;;1.70;;
21806;SDS011;11065;50.786;7.840;2022-10-19T16:31:10;2.83;;;1.67;;
21806;SDS011;11065;50.786;7.840;2022-10-19T16:33:37;5.53;;;2.27;;
21806;SDS011;11065;50.786;7.840;2022-10-19T16:36:04;4.43;;;1.57;;
21806;SDS011;11065;50.786;7.840;2022-10-19T16:38:32;3.53;;;1.80;;
21806;SDS011;11065;50.786;7.840;2022-10-19T16:41:00;5.90;;;2.37;;
21806;SDS011;11065;50.786;7.840;2022-10-19T16:43:28;5.40;;;2.70;;
21806;SDS011;11065;50.786;7.840;2022-10-19T16:45:56;6.60;;;2.33;;
21806;SDS011;11065;50.786;7.840;2022-10-19T16:48:23;6.07;;;2.40;;
21806;SDS011;11065;50.786;7.840;2022-10-19T16:53:35;6.97;;;1.70;;
21806;SDS011;11065;50.786;7.840;2022-10-19T16:56:06;5.37;;;1.77;;
21806;SDS011;11065;50.786;7.840;2022-10-19T16:58:34;5.27;;;2.10;;
21806;SDS011;11065;50.786;7.840;2022-10-19T17:01:09;6.37;;;1.87;;
21806;SDS011;11065;50.786;7.840;2022-10-19T17:03:37;4.63;;;1.77;;
21806;SDS011;11065;50.786;7.840;2022-10-19T17:06:04;4.73;;;2.40;;
21806;SDS011;11065;50.786;7.840;2022-10-19T17:08:33;5.30;;;1.90;;
21806;SDS011;11065;50.786;7.840;2022-10-19T17:11:21;5.17;;;1.73;;
21806;SDS011;11065;50.786;7.840;2022-10-19T17:13:49;7.20;;;2.10;;
21806;SDS011;11065;50.786;7.840;2022-10-19T17:16:17;7.77;;;2.00;;
21806;SDS011;11065;50.786;7.840;2022-10-19T17:18:46;4.87;;;2.03;;
21806;SDS011;11065;50.786;7.840;2022-10-19T17:21:14;3.43;;;1.97;;
21806;SDS011;11065;50.786;7.840;2022-10-19T17:23:44;4.23;;;2.07;;
21806;SDS011;11065;50.786;7.840;2022-10-19T17:26:11;4.43;;;2.00;;
21806;SDS011;11065;50.786;7.840;2022-10-19T17:28:38;3.90;;;1.90;;
21806;SDS011;11065;50.786;7.840;2022-10-19T17:31:06;5.47;;;2.13;;
21806;SDS011;11065;50.786;7.840;2022-10-19T17:33:39;4.23;;;2.00;;
21806;SDS011;11065;50.786;7.840;2022-10-19T17:36:07;4.73;;;1.80;;
21806;SDS011;11065;50.786;7.840;2022-10-19T17:38:38;3.60;;;1.60;;
21806;SDS011;11065;50.786;7.840;2022-10-19T17:41:07;5.67;;;2.07;;
21806;SDS011;11065;50.786;7.840;2022-10-19T17:43:39;4.10;;;2.03;;
21806;SDS011;11065;50.786;7.840;2022-10-19T17:46:08;4.53;;;1.80;;
21806;SDS011;11065;50.786;7.840;2022-10-19T17:48:37;4.20;;;1.30;;